sensor_id;sensor_type;location;lat;lon;timestamp;P1;durP1;ratioP1;P2;durP2;ratioP2
80961;SDS011;70424;55.154;14.722;2023-10-31T00:00:17;13.55;;;6.35;;
80961;SDS011;70424;55.154;14.722;2023-10-31T00:02:42;11.02;;;6.00;;
80961;SDS011;70424;55.154;14.722;2023-10-31T00:05:08;11.80;;;5.72;;
80961;SDS011;70424;55.154;14.722;2023-10-31T00:07:33;10.88;;;5.65;;
80961;SDS011;70424;55.154;14.722;2023-10-31T00:09:59;11.00;;;5.53;;
80961;SDS011;70424;55.154;14.722;2023-10-31T00:12:25;8.73;;;5.30;;
80961;SDS011;70424;55.154;14.722;2023-10-31T00:14:51;11.07;;;5.80;;
80961;SDS011;70424;55.154;14.722;2023-10-31T00:17:16;12.13;;;5.30;;
80961;SDS011;70424;55.154;14.722;2023-10-31T00:19:41;12.77;;;5.78;;
80961;SDS011;70424;55.154;14.722;2023-10-31T00:22:07;9.18;;;5.50;;
80961;SDS011;70424;55.154;14.722;2023-10-31T00:24:32;7.97;;;5.40;;
80961;SDS011;70424;55.154;14.722;2023-10-31T00:26:58;8.95;;;5.30;;
80961;SDS011;70424;55.154;14.722;2023-10-31T00:29:23;8.05;;;5.32;;
80961;SDS011;70424;55.154;14.722;2023-10-31T00:31:49;9.57;;;4.95;;
80961;SDS011;70424;55.154;14.722;2023-10-31T00:34:14;12.60;;;5.53;;
80961;SDS011;70424;55.154;14.722;2023-10-31T00:36:40;7.35;;;4.75;;
80961;SDS011;70424;55.154;14.722;2023-10-31T00:39:05;9.48;;;5.95;;
80961;SDS011;70424;55.154;14.722;2023-10-31T00:41:30;12.93;;;5.10;;
80961;SDS011;70424;55.154;14.722;2023-10-31T00:43:56;9.52;;;5.10;;
80961;SDS011;70424;55.154;14.722;2023-10-31T00:46:21;8.55;;;5.43;;
80961;SDS011;70424;55.154;14.722;2023-10-31T00:48:46;7.75;;;5.30;;
80961;SDS011;70424;55.154;14.722;2023-10-31T00:51:13;11.07;;;5.82;;
80961;SDS011;70424;55.154;14.722;2023-10-31T00:53:38;10.10;;;5.40;;
80961;SDS011;70424;55.154;14.722;2023-10-31T00:56:04;11.00;;;5.30;;
80961;SDS011;70424;55.154;14.722;2023-10-31T00:58:29;9.55;;;5.40;;
80961;SDS011;70424;55.154;14.722;2023-10-31T01:00:54;11.00;;;5.93;;
80961;SDS011;70424;55.154;14.722;2023-10-31T01:03:20;9.80;;;5.55;;
80961;SDS011;70424;55.154;14.722;2023-10-31T01:05:45;9.38;;;4.95;;
80961;SDS011;70424;55.154;14.722;2023-10-31T01:08:11;12.30;;;5.50;;
80961;SDS011;70424;55.154;14.722;2023-10-31T01:10:36;8.38;;;5.07;;
80961;SDS011;70424;55.154;14.722;2023-10-31T01:13:02;9.02;;;5.30;;
80961;SDS011;70424;55.154;14.722;2023-10-31T01:15:27;7.88;;;5.28;;
80961;SDS011;70424;55.154;14.722;2023-10-31T01:17:53;9.18;;;5.47;;
80961;SDS011;70424;55.154;14.722;2023-10-31T01:20:18;7.82;;;5.00;;
80961;SDS011;70424;55.154;14.722;2023-10-31T01:22:43;12.80;;;5.35;;
80961;SDS011;70424;55.154;14.722;2023-10-31T01:25:09;9.18;;;5.03;;
80961;SDS011;70424;55.154;14.722;2023-10-31T01:27:35;10.02;;;5.30;;
80961;SDS011;70424;55.154;14.722;2023-10-31T01:30:01;10.40;;;4.85;;
80961;SDS011;70424;55.154;14.722;2023-10-31T01:32:26;8.85;;;4.85;;
80961;SDS011;70424;55.154;14.722;2023-10-31T01:34:52;8.73;;;5.13;;
80961;SDS011;70424;55.154;14.722;2023-10-31T01:37:17;7.82;;;4.63;;
80961;SDS011;70424;55.154;14.722;2023-10-31T01:39:44;8.63;;;4.88;;
80961;SDS011;70424;55.154;14.722;2023-10-31T01:42:12;9.75;;;4.50;;
80961;SDS011;70424;55.154;14.722;2023-10-31T01:44:38;8.85;;;4.75;;
80961;SDS011;70424;55.154;14.722;2023-10-31T01:47:04;9.25;;;4.53;;
80961;SDS011;70424;55.154;14.722;2023-10-31T01:49:29;8.27;;;3.88;;
80961;SDS011;70424;55.154;14.722;2023-10-31T01:51:54;8.70;;;4.55;;
80961;SDS011;70424;55.154;14.722;2023-10-31T01:54:20;7.90;;;4.40;;
80961;SDS011;70424;55.154;14.722;2023-10-31T01:56:46;9.43;;;4.25;;
80961;SDS011;70424;55.154;14.722;2023-10-31T01:59:13;7.78;;;4.10;;
80961;SDS011;70424;55.154;14.722;2023-10-31T02:01:39;9.30;;;4.30;;
80961;SDS011;70424;55.154;14.722;2023-10-31T02:04:07;7.72;;;4.53;;
80961;SDS011;70424;55.154;14.722;2023-10-31T02:06:32;6.97;;;3.92;;
80961;SDS011;70424;55.154;14.722;2023-10-31T02:08:58;9.43;;;4.65;;
80961;SDS011;70424;55.154;14.722;2023-10-31T02:11:23;6.95;;;4.55;;
80961;SDS011;70424;55.154;14.722;2023-10-31T02:13:48;7.55;;;3.80;;
80961;SDS011;70424;55.154;14.722;2023-10-31T02:16:14;6.63;;;3.70;;
80961;SDS011;70424;55.154;14.722;2023-10-31T02:18:39;7.82;;;4.10;;
80961;SDS011;70424;55.154;14.722;2023-10-31T02:21:04;9.30;;;3.95;;
80961;SDS011;70424;55.154;14.722;2023-10-31T02:23:30;9.15;;;3.83;;
80961;SDS011;70424;55.154;14.722;2023-10-31T02:25:55;6.15;;;3.75;;
80961;SDS011;70424;55.154;14.722;2023-10-31T02:28:22;6.90;;;3.70;;
80961;SDS011;70424;55.154;14.722;2023-10-31T02:30:52;8.23;;;3.97;;
80961;SDS011;70424;55.154;14.722;2023-10-31T02:33:17;6.13;;;3.63;;
80961;SDS011;70424;55.154;14.722;2023-10-31T02:35:43;8.63;;;4.13;;
80961;SDS011;70424;55.154;14.722;2023-10-31T02:38:08;6.88;;;3.60;;
80961;SDS011;70424;55.154;14.722;2023-10-31T02:40:33;8.73;;;3.90;;
80961;SDS011;70424;55.154;14.722;2023-10-31T02:42:59;12.65;;;4.13;;
80961;SDS011;70424;55.154;14.722;2023-10-31T02:45:24;7.50;;;4.03;;
80961;SDS011;70424;55.154;14.722;2023-10-31T02:47:49;9.52;;;4.03;;
80961;SDS011;70424;55.154;14.722;2023-10-31T02:50:15;7.68;;;3.97;;
80961;SDS011;70424;55.154;14.722;2023-10-31T02:52:40;5.65;;;3.50;;
80961;SDS011;70424;55.154;14.722;2023-10-31T02:55:05;6.03;;;3.47;;
80961;SDS011;70424;55.154;14.722;2023-10-31T02:57:31;7.47;;;3.35;;
80961;SDS011;70424;55.154;14.722;2023-10-31T02:59:56;9.27;;;3.92;;
80961;SDS011;70424;55.154;14.722;2023-10-31T03:02:22;8.75;;;3.80;;
80961;SDS011;70424;55.154;14.722;2023-10-31T03:04:47;7.95;;;3.78;;
80961;SDS011;70424;55.154;14.722;2023-10-31T03:07:12;7.85;;;3.53;;
80961;SDS011;70424;55.154;14.722;2023-10-31T03:09:38;6.22;;;3.63;;
80961;SDS011;70424;55.154;14.722;2023-10-31T03:12:03;7.03;;;3.80;;
80961;SDS011;70424;55.154;14.722;2023-10-31T03:14:29;5.85;;;3.75;;
80961;SDS011;70424;55.154;14.722;2023-10-31T03:16:54;8.05;;;4.00;;
80961;SDS011;70424;55.154;14.722;2023-10-31T03:19:19;8.70;;;3.88;;
80961;SDS011;70424;55.154;14.722;2023-10-31T03:21:44;11.52;;;4.10;;
80961;SDS011;70424;55.154;14.722;2023-10-31T03:24:10;10.32;;;3.88;;
80961;SDS011;70424;55.154;14.722;2023-10-31T03:26:35;9.15;;;3.90;;
80961;SDS011;70424;55.154;14.722;2023-10-31T03:29:00;9.80;;;4.00;;
80961;SDS011;70424;55.154;14.722;2023-10-31T03:31:26;8.80;;;3.95;;
80961;SDS011;70424;55.154;14.722;2023-10-31T03:33:51;6.55;;;3.78;;
80961;SDS011;70424;55.154;14.722;2023-10-31T03:36:18;6.97;;;3.70;;
80961;SDS011;70424;55.154;14.722;2023-10-31T03:38:43;10.75;;;4.63;;
80961;SDS011;70424;55.154;14.722;2023-10-31T03:41:09;8.32;;;4.45;;
80961;SDS011;70424;55.154;14.722;2023-10-31T03:43:34;7.32;;;4.40;;
80961;SDS011;70424;55.154;14.722;2023-10-31T03:46:00;7.38;;;4.28;;
80961;SDS011;70424;55.154;14.722;2023-10-31T03:48:25;8.77;;;4.30;;
80961;SDS011;70424;55.154;14.722;2023-10-31T03:50:51;9.50;;;4.07;;
80961;SDS011;70424;55.154;14.722;2023-10-31T03:53:16;8.43;;;4.32;;
80961;SDS011;70424;55.154;14.722;2023-10-31T03:55:42;7.15;;;4.40;;
80961;SDS011;70424;55.154;14.722;2023-10-31T03:58:07;8.90;;;4.80;;
80961;SDS011;70424;55.154;14.722;2023-10-31T04:00:33;8.82;;;4.30;;
80961;SDS011;70424;55.154;14.722;2023-10-31T04:02:58;8.27;;;4.70;;
80961;SDS011;70424;55.154;14.722;2023-10-31T04:05:23;8.13;;;4.88;;
80961;SDS011;70424;55.154;14.722;2023-10-31T04:07:49;8.32;;;4.70;;
80961;SDS011;70424;55.154;14.722;2023-10-31T04:10:15;9.70;;;4.57;;
80961;SDS011;70424;55.154;14.722;2023-10-31T04:12:41;7.95;;;4.50;;
80961;SDS011;70424;55.154;14.722;2023-10-31T04:15:07;10.60;;;5.43;;
80961;SDS011;70424;55.154;14.722;2023-10-31T04:17:33;9.82;;;5.00;;
80961;SDS011;70424;55.154;14.722;2023-10-31T04:19:58;7.43;;;4.80;;
80961;SDS011;70424;55.154;14.722;2023-10-31T04:22:23;10.27;;;5.40;;
80961;SDS011;70424;55.154;14.722;2023-10-31T04:24:49;9.25;;;5.18;;
80961;SDS011;70424;55.154;14.722;2023-10-31T04:27:14;8.02;;;5.20;;
80961;SDS011;70424;55.154;14.722;2023-10-31T04:29:40;10.18;;;5.70;;
80961;SDS011;70424;55.154;14.722;2023-10-31T04:32:05;12.65;;;5.85;;
80961;SDS011;70424;55.154;14.722;2023-10-31T04:34:31;10.70;;;5.47;;
80961;SDS011;70424;55.154;14.722;2023-10-31T04:36:56;8.52;;;5.25;;
80961;SDS011;70424;55.154;14.722;2023-10-31T04:39:21;11.55;;;5.13;;
80961;SDS011;70424;55.154;14.722;2023-10-31T04:41:47;11.13;;;5.50;;
80961;SDS011;70424;55.154;14.722;2023-10-31T04:44:12;9.73;;;5.63;;
80961;SDS011;70424;55.154;14.722;2023-10-31T04:46:38;10.77;;;6.07;;
80961;SDS011;70424;55.154;14.722;2023-10-31T04:49:04;9.70;;;5.30;;
80961;SDS011;70424;55.154;14.722;2023-10-31T04:51:33;9.95;;;5.22;;
80961;SDS011;70424;55.154;14.722;2023-10-31T04:53:59;12.68;;;5.85;;
80961;SDS011;70424;55.154;14.722;2023-10-31T04:56:25;11.98;;;6.32;;
80961;SDS011;70424;55.154;14.722;2023-10-31T04:58:50;9.23;;;5.70;;
80961;SDS011;70424;55.154;14.722;2023-10-31T05:01:15;8.48;;;5.10;;
80961;SDS011;70424;55.154;14.722;2023-10-31T05:03:41;11.80;;;6.10;;
80961;SDS011;70424;55.154;14.722;2023-10-31T05:06:06;10.30;;;5.97;;
80961;SDS011;70424;55.154;14.722;2023-10-31T05:08:32;9.57;;;5.72;;
80961;SDS011;70424;55.154;14.722;2023-10-31T05:10:57;10.45;;;5.68;;
80961;SDS011;70424;55.154;14.722;2023-10-31T05:13:23;10.57;;;5.88;;
80961;SDS011;70424;55.154;14.722;2023-10-31T05:15:49;9.35;;;5.60;;
80961;SDS011;70424;55.154;14.722;2023-10-31T05:18:15;13.60;;;6.35;;
80961;SDS011;70424;55.154;14.722;2023-10-31T05:20:41;8.98;;;6.55;;
80961;SDS011;70424;55.154;14.722;2023-10-31T05:23:06;9.73;;;6.05;;
80961;SDS011;70424;55.154;14.722;2023-10-31T05:25:32;10.77;;;5.78;;
80961;SDS011;70424;55.154;14.722;2023-10-31T05:27:57;11.82;;;5.60;;
80961;SDS011;70424;55.154;14.722;2023-10-31T05:30:22;11.80;;;5.85;;
80961;SDS011;70424;55.154;14.722;2023-10-31T05:32:49;9.68;;;6.20;;
80961;SDS011;70424;55.154;14.722;2023-10-31T05:35:15;13.13;;;6.83;;
80961;SDS011;70424;55.154;14.722;2023-10-31T05:37:40;9.73;;;6.30;;
80961;SDS011;70424;55.154;14.722;2023-10-31T05:40:05;9.40;;;6.38;;
80961;SDS011;70424;55.154;14.722;2023-10-31T05:42:31;14.02;;;6.28;;
80961;SDS011;70424;55.154;14.722;2023-10-31T05:44:56;11.73;;;6.30;;
80961;SDS011;70424;55.154;14.722;2023-10-31T05:47:22;10.43;;;6.30;;
80961;SDS011;70424;55.154;14.722;2023-10-31T05:49:47;11.98;;;6.50;;
80961;SDS011;70424;55.154;14.722;2023-10-31T05:52:13;12.68;;;6.70;;
80961;SDS011;70424;55.154;14.722;2023-10-31T05:54:38;11.25;;;6.47;;
80961;SDS011;70424;55.154;14.722;2023-10-31T05:57:03;11.15;;;5.93;;
80961;SDS011;70424;55.154;14.722;2023-10-31T05:59:29;10.48;;;6.28;;
80961;SDS011;70424;55.154;14.722;2023-10-31T06:01:54;10.13;;;6.50;;
80961;SDS011;70424;55.154;14.722;2023-10-31T06:04:20;10.02;;;6.05;;
80961;SDS011;70424;55.154;14.722;2023-10-31T06:06:45;10.27;;;5.93;;
80961;SDS011;70424;55.154;14.722;2023-10-31T06:09:10;10.75;;;6.53;;
80961;SDS011;70424;55.154;14.722;2023-10-31T06:11:36;9.77;;;5.78;;
80961;SDS011;70424;55.154;14.722;2023-10-31T06:14:01;12.52;;;6.60;;
80961;SDS011;70424;55.154;14.722;2023-10-31T06:16:26;12.23;;;6.72;;
80961;SDS011;70424;55.154;14.722;2023-10-31T06:18:52;10.95;;;6.10;;
80961;SDS011;70424;55.154;14.722;2023-10-31T06:21:17;12.73;;;7.50;;
80961;SDS011;70424;55.154;14.722;2023-10-31T06:23:42;12.25;;;7.05;;
80961;SDS011;70424;55.154;14.722;2023-10-31T06:26:10;10.63;;;6.70;;
80961;SDS011;70424;55.154;14.722;2023-10-31T06:28:35;11.50;;;6.78;;
80961;SDS011;70424;55.154;14.722;2023-10-31T06:31:02;12.23;;;6.35;;
80961;SDS011;70424;55.154;14.722;2023-10-31T06:33:28;11.48;;;7.30;;
80961;SDS011;70424;55.154;14.722;2023-10-31T06:35:53;10.93;;;6.78;;
80961;SDS011;70424;55.154;14.722;2023-10-31T06:38:19;12.88;;;7.15;;
80961;SDS011;70424;55.154;14.722;2023-10-31T06:40:44;14.38;;;7.68;;
80961;SDS011;70424;55.154;14.722;2023-10-31T06:43:10;12.18;;;7.35;;
80961;SDS011;70424;55.154;14.722;2023-10-31T06:45:35;11.10;;;7.03;;
80961;SDS011;70424;55.154;14.722;2023-10-31T06:48:01;12.98;;;7.10;;
80961;SDS011;70424;55.154;14.722;2023-10-31T06:50:27;10.00;;;7.28;;
80961;SDS011;70424;55.154;14.722;2023-10-31T06:52:52;12.50;;;7.32;;
80961;SDS011;70424;55.154;14.722;2023-10-31T06:55:18;14.68;;;7.78;;
80961;SDS011;70424;55.154;14.722;2023-10-31T06:57:43;11.73;;;7.68;;
80961;SDS011;70424;55.154;14.722;2023-10-31T07:00:08;13.18;;;7.47;;
80961;SDS011;70424;55.154;14.722;2023-10-31T07:02:35;12.48;;;7.22;;
80961;SDS011;70424;55.154;14.722;2023-10-31T07:05:00;11.63;;;7.68;;
80961;SDS011;70424;55.154;14.722;2023-10-31T07:07:26;12.50;;;7.93;;
80961;SDS011;70424;55.154;14.722;2023-10-31T07:09:51;13.90;;;8.25;;
80961;SDS011;70424;55.154;14.722;2023-10-31T07:12:17;13.85;;;8.02;;
80961;SDS011;70424;55.154;14.722;2023-10-31T07:14:42;13.73;;;8.48;;
80961;SDS011;70424;55.154;14.722;2023-10-31T07:17:07;13.20;;;8.32;;
80961;SDS011;70424;55.154;14.722;2023-10-31T07:19:32;12.68;;;7.82;;
80961;SDS011;70424;55.154;14.722;2023-10-31T07:21:58;12.88;;;8.77;;
80961;SDS011;70424;55.154;14.722;2023-10-31T07:24:23;14.65;;;8.48;;
80961;SDS011;70424;55.154;14.722;2023-10-31T07:26:48;12.52;;;7.90;;
80961;SDS011;70424;55.154;14.722;2023-10-31T07:29:14;14.80;;;8.40;;
80961;SDS011;70424;55.154;14.722;2023-10-31T07:31:39;13.88;;;8.57;;
80961;SDS011;70424;55.154;14.722;2023-10-31T07:34:05;14.38;;;8.65;;
80961;SDS011;70424;55.154;14.722;2023-10-31T07:36:31;13.48;;;9.05;;
80961;SDS011;70424;55.154;14.722;2023-10-31T07:39:00;12.52;;;8.43;;
80961;SDS011;70424;55.154;14.722;2023-10-31T07:41:25;13.50;;;8.45;;
80961;SDS011;70424;55.154;14.722;2023-10-31T07:43:50;11.88;;;8.25;;
80961;SDS011;70424;55.154;14.722;2023-10-31T07:46:16;13.32;;;7.60;;
80961;SDS011;70424;55.154;14.722;2023-10-31T07:48:41;12.07;;;8.07;;
80961;SDS011;70424;55.154;14.722;2023-10-31T07:51:06;13.45;;;8.63;;
80961;SDS011;70424;55.154;14.722;2023-10-31T07:53:32;17.08;;;8.63;;
80961;SDS011;70424;55.154;14.722;2023-10-31T07:55:57;12.98;;;8.15;;
80961;SDS011;70424;55.154;14.722;2023-10-31T07:58:23;12.02;;;8.35;;
80961;SDS011;70424;55.154;14.722;2023-10-31T08:00:48;13.75;;;8.68;;
80961;SDS011;70424;55.154;14.722;2023-10-31T08:03:13;14.40;;;8.65;;
80961;SDS011;70424;55.154;14.722;2023-10-31T08:05:39;15.13;;;8.98;;
80961;SDS011;70424;55.154;14.722;2023-10-31T08:08:04;14.15;;;9.25;;
80961;SDS011;70424;55.154;14.722;2023-10-31T08:10:30;15.55;;;9.07;;
80961;SDS011;70424;55.154;14.722;2023-10-31T08:12:55;13.70;;;8.93;;
80961;SDS011;70424;55.154;14.722;2023-10-31T08:15:20;14.55;;;9.63;;
80961;SDS011;70424;55.154;14.722;2023-10-31T08:17:46;12.75;;;8.55;;
80961;SDS011;70424;55.154;14.722;2023-10-31T08:20:11;12.93;;;9.07;;
80961;SDS011;70424;55.154;14.722;2023-10-31T08:22:38;14.52;;;8.88;;
80961;SDS011;70424;55.154;14.722;2023-10-31T08:25:04;13.73;;;8.85;;
80961;SDS011;70424;55.154;14.722;2023-10-31T08:27:29;12.88;;;8.35;;
80961;SDS011;70424;55.154;14.722;2023-10-31T08:29:55;13.02;;;9.10;;
80961;SDS011;70424;55.154;14.722;2023-10-31T08:32:20;14.43;;;9.02;;
80961;SDS011;70424;55.154;14.722;2023-10-31T08:34:47;15.67;;;9.10;;
80961;SDS011;70424;55.154;14.722;2023-10-31T08:37:12;14.88;;;8.98;;
80961;SDS011;70424;55.154;14.722;2023-10-31T08:39:38;15.85;;;8.90;;
80961;SDS011;70424;55.154;14.722;2023-10-31T08:42:03;13.98;;;8.45;;
80961;SDS011;70424;55.154;14.722;2023-10-31T08:44:28;14.23;;;8.82;;
80961;SDS011;70424;55.154;14.722;2023-10-31T08:46:54;15.05;;;9.40;;
80961;SDS011;70424;55.154;14.722;2023-10-31T08:49:19;14.68;;;8.75;;
80961;SDS011;70424;55.154;14.722;2023-10-31T08:51:45;13.15;;;8.30;;
80961;SDS011;70424;55.154;14.722;2023-10-31T08:54:10;13.77;;;8.50;;
80961;SDS011;70424;55.154;14.722;2023-10-31T08:56:36;12.90;;;8.27;;
80961;SDS011;70424;55.154;14.722;2023-10-31T08:59:01;14.75;;;8.52;;
80961;SDS011;70424;55.154;14.722;2023-10-31T09:01:27;13.73;;;8.95;;
80961;SDS011;70424;55.154;14.722;2023-10-31T09:03:54;12.85;;;8.27;;
80961;SDS011;70424;55.154;14.722;2023-10-31T09:06:19;13.13;;;9.05;;
80961;SDS011;70424;55.154;14.722;2023-10-31T09:08:45;14.75;;;9.40;;
80961;SDS011;70424;55.154;14.722;2023-10-31T09:11:10;12.93;;;9.25;;
80961;SDS011;70424;55.154;14.722;2023-10-31T09:13:35;15.02;;;9.40;;
80961;SDS011;70424;55.154;14.722;2023-10-31T09:16:01;15.05;;;9.43;;
80961;SDS011;70424;55.154;14.722;2023-10-31T09:18:26;15.18;;;10.02;;
80961;SDS011;70424;55.154;14.722;2023-10-31T09:20:52;14.85;;;10.05;;
80961;SDS011;70424;55.154;14.722;2023-10-31T09:23:18;13.88;;;9.45;;
80961;SDS011;70424;55.154;14.722;2023-10-31T09:25:44;14.25;;;9.35;;
80961;SDS011;70424;55.154;14.722;2023-10-31T09:28:09;14.45;;;10.00;;
80961;SDS011;70424;55.154;14.722;2023-10-31T09:30:35;14.48;;;9.63;;
80961;SDS011;70424;55.154;14.722;2023-10-31T09:33:00;13.75;;;10.18;;
80961;SDS011;70424;55.154;14.722;2023-10-31T09:35:26;12.70;;;9.13;;
80961;SDS011;70424;55.154;14.722;2023-10-31T09:37:52;13.82;;;9.98;;
80961;SDS011;70424;55.154;14.722;2023-10-31T09:40:17;13.27;;;10.07;;
80961;SDS011;70424;55.154;14.722;2023-10-31T09:42:46;11.98;;;9.25;;
80961;SDS011;70424;55.154;14.722;2023-10-31T09:45:12;14.93;;;10.43;;
80961;SDS011;70424;55.154;14.722;2023-10-31T09:47:38;13.50;;;10.32;;
80961;SDS011;70424;55.154;14.722;2023-10-31T09:50:05;16.38;;;10.35;;
80961;SDS011;70424;55.154;14.722;2023-10-31T09:52:32;15.35;;;10.27;;
80961;SDS011;70424;55.154;14.722;2023-10-31T09:54:57;14.93;;;10.57;;
80961;SDS011;70424;55.154;14.722;2023-10-31T09:57:24;13.77;;;10.48;;
80961;SDS011;70424;55.154;14.722;2023-10-31T09:59:51;13.65;;;10.60;;
80961;SDS011;70424;55.154;14.722;2023-10-31T10:02:16;16.95;;;11.27;;
80961;SDS011;70424;55.154;14.722;2023-10-31T10:04:42;14.25;;;9.90;;
80961;SDS011;70424;55.154;14.722;2023-10-31T10:07:07;16.48;;;10.60;;
80961;SDS011;70424;55.154;14.722;2023-10-31T10:09:32;16.13;;;10.57;;
80961;SDS011;70424;55.154;14.722;2023-10-31T10:11:58;14.85;;;10.57;;
80961;SDS011;70424;55.154;14.722;2023-10-31T10:14:27;13.35;;;9.35;;
80961;SDS011;70424;55.154;14.722;2023-10-31T10:16:54;15.82;;;10.02;;
80961;SDS011;70424;55.154;14.722;2023-10-31T10:19:20;13.75;;;10.20;;
80961;SDS011;70424;55.154;14.722;2023-10-31T10:21:47;14.30;;;10.07;;
80961;SDS011;70424;55.154;14.722;2023-10-31T10:24:17;12.65;;;9.90;;
80961;SDS011;70424;55.154;14.722;2023-10-31T10:26:43;17.52;;;10.63;;
80961;SDS011;70424;55.154;14.722;2023-10-31T10:29:09;11.90;;;9.25;;
80961;SDS011;70424;55.154;14.722;2023-10-31T10:31:34;11.90;;;9.07;;
80961;SDS011;70424;55.154;14.722;2023-10-31T10:34:00;13.07;;;9.98;;
80961;SDS011;70424;55.154;14.722;2023-10-31T10:36:26;11.70;;;8.77;;
80961;SDS011;70424;55.154;14.722;2023-10-31T10:38:53;13.48;;;9.88;;
80961;SDS011;70424;55.154;14.722;2023-10-31T10:41:21;13.00;;;9.35;;
80961;SDS011;70424;55.154;14.722;2023-10-31T10:43:50;13.27;;;9.50;;
80961;SDS011;70424;55.154;14.722;2023-10-31T10:46:20;13.40;;;9.70;;
80961;SDS011;70424;55.154;14.722;2023-10-31T10:48:48;13.65;;;10.13;;
80961;SDS011;70424;55.154;14.722;2023-10-31T10:54:17;14.27;;;10.30;;
80961;SDS011;70424;55.154;14.722;2023-10-31T10:56:47;14.13;;;10.25;;
80961;SDS011;70424;55.154;14.722;2023-10-31T10:59:20;14.73;;;10.05;;
80961;SDS011;70424;55.154;14.722;2023-10-31T11:01:52;14.90;;;9.93;;
80961;SDS011;70424;55.154;14.722;2023-10-31T11:04:18;12.45;;;9.43;;
80961;SDS011;70424;55.154;14.722;2023-10-31T11:06:44;13.48;;;9.60;;
80961;SDS011;70424;55.154;14.722;2023-10-31T11:09:10;13.73;;;9.68;;
80961;SDS011;70424;55.154;14.722;2023-10-31T11:11:39;12.98;;;9.15;;
80961;SDS011;70424;55.154;14.722;2023-10-31T11:14:05;13.82;;;9.63;;
80961;SDS011;70424;55.154;14.722;2023-10-31T11:16:35;12.82;;;9.35;;
80961;SDS011;70424;55.154;14.722;2023-10-31T11:19:07;13.70;;;9.38;;
80961;SDS011;70424;55.154;14.722;2023-10-31T11:21:33;12.68;;;8.68;;
80961;SDS011;70424;55.154;14.722;2023-10-31T11:23:59;14.85;;;10.10;;
80961;SDS011;70424;55.154;14.722;2023-10-31T11:26:26;14.52;;;9.60;;
80961;SDS011;70424;55.154;14.722;2023-10-31T11:28:51;12.13;;;8.82;;
80961;SDS011;70424;55.154;14.722;2023-10-31T11:31:17;13.75;;;9.68;;
80961;SDS011;70424;55.154;14.722;2023-10-31T11:33:42;13.98;;;9.23;;
80961;SDS011;70424;55.154;14.722;2023-10-31T11:36:08;14.70;;;9.32;;
80961;SDS011;70424;55.154;14.722;2023-10-31T11:38:36;16.48;;;9.85;;
80961;SDS011;70424;55.154;14.722;2023-10-31T11:41:03;14.23;;;9.57;;
80961;SDS011;70424;55.154;14.722;2023-10-31T11:46:03;14.23;;;9.07;;
80961;SDS011;70424;55.154;14.722;2023-10-31T11:51:25;14.52;;;9.70;;
80961;SDS011;70424;55.154;14.722;2023-10-31T11:53:51;15.40;;;9.57;;
80961;SDS011;70424;55.154;14.722;2023-10-31T11:56:17;15.70;;;10.02;;
80961;SDS011;70424;55.154;14.722;2023-10-31T11:58:43;14.50;;;10.15;;
80961;SDS011;70424;55.154;14.722;2023-10-31T12:01:08;14.38;;;9.50;;
80961;SDS011;70424;55.154;14.722;2023-10-31T12:03:41;15.73;;;9.93;;
80961;SDS011;70424;55.154;14.722;2023-10-31T12:06:12;15.95;;;10.38;;
80961;SDS011;70424;55.154;14.722;2023-10-31T12:08:42;15.10;;;10.05;;
80961;SDS011;70424;55.154;14.722;2023-10-31T12:11:12;16.02;;;9.88;;
80961;SDS011;70424;55.154;14.722;2023-10-31T12:13:38;15.90;;;9.45;;
80961;SDS011;70424;55.154;14.722;2023-10-31T12:16:05;14.23;;;9.30;;
80961;SDS011;70424;55.154;14.722;2023-10-31T12:18:33;12.85;;;8.73;;
80961;SDS011;70424;55.154;14.722;2023-10-31T12:21:00;13.05;;;8.48;;
80961;SDS011;70424;55.154;14.722;2023-10-31T12:23:25;15.02;;;8.13;;
80961;SDS011;70424;55.154;14.722;2023-10-31T12:25:51;10.25;;;6.90;;
80961;SDS011;70424;55.154;14.722;2023-10-31T12:28:20;9.80;;;6.05;;
80961;SDS011;70424;55.154;14.722;2023-10-31T12:30:47;8.07;;;6.00;;
80961;SDS011;70424;55.154;14.722;2023-10-31T12:33:13;8.10;;;5.40;;
80961;SDS011;70424;55.154;14.722;2023-10-31T12:35:39;7.95;;;5.72;;
80961;SDS011;70424;55.154;14.722;2023-10-31T12:38:05;9.55;;;5.95;;
80961;SDS011;70424;55.154;14.722;2023-10-31T12:40:32;8.75;;;6.25;;
80961;SDS011;70424;55.154;14.722;2023-10-31T12:42:59;10.25;;;6.75;;
80961;SDS011;70424;55.154;14.722;2023-10-31T12:45:25;11.48;;;7.75;;
80961;SDS011;70424;55.154;14.722;2023-10-31T12:48:02;11.18;;;8.25;;
80961;SDS011;70424;55.154;14.722;2023-10-31T12:50:29;11.07;;;7.80;;
80961;SDS011;70424;55.154;14.722;2023-10-31T12:52:56;12.85;;;8.63;;
80961;SDS011;70424;55.154;14.722;2023-10-31T12:55:28;12.73;;;8.07;;
80961;SDS011;70424;55.154;14.722;2023-10-31T12:57:54;15.18;;;8.52;;
80961;SDS011;70424;55.154;14.722;2023-10-31T13:00:21;10.50;;;7.18;;
80961;SDS011;70424;55.154;14.722;2023-10-31T13:03:00;11.60;;;7.45;;
80961;SDS011;70424;55.154;14.722;2023-10-31T13:05:29;12.30;;;7.38;;
80961;SDS011;70424;55.154;14.722;2023-10-31T13:07:56;10.13;;;6.60;;
80961;SDS011;70424;55.154;14.722;2023-10-31T13:10:23;9.60;;;6.17;;
80961;SDS011;70424;55.154;14.722;2023-10-31T13:12:50;9.57;;;6.78;;
80961;SDS011;70424;55.154;14.722;2023-10-31T13:15:17;8.45;;;6.20;;
80961;SDS011;70424;55.154;14.722;2023-10-31T13:17:43;11.05;;;5.97;;
80961;SDS011;70424;55.154;14.722;2023-10-31T13:20:09;9.32;;;5.90;;
80961;SDS011;70424;55.154;14.722;2023-10-31T13:22:37;7.88;;;5.65;;
80961;SDS011;70424;55.154;14.722;2023-10-31T13:25:03;8.15;;;5.30;;
80961;SDS011;70424;55.154;14.722;2023-10-31T13:27:51;8.23;;;5.87;;
80961;SDS011;70424;55.154;14.722;2023-10-31T13:30:18;10.38;;;5.90;;
80961;SDS011;70424;55.154;14.722;2023-10-31T13:32:43;7.00;;;4.93;;
80961;SDS011;70424;55.154;14.722;2023-10-31T13:35:09;8.38;;;6.10;;
80961;SDS011;70424;55.154;14.722;2023-10-31T13:37:35;9.30;;;5.55;;
80961;SDS011;70424;55.154;14.722;2023-10-31T13:40:01;9.50;;;5.13;;
80961;SDS011;70424;55.154;14.722;2023-10-31T13:42:27;6.82;;;5.38;;
80961;SDS011;70424;55.154;14.722;2023-10-31T13:44:53;10.13;;;5.22;;
80961;SDS011;70424;55.154;14.722;2023-10-31T13:47:18;8.63;;;5.70;;
80961;SDS011;70424;55.154;14.722;2023-10-31T13:49:44;9.45;;;5.85;;
80961;SDS011;70424;55.154;14.722;2023-10-31T13:52:09;8.55;;;6.38;;
80961;SDS011;70424;55.154;14.722;2023-10-31T13:54:35;9.25;;;6.35;;
80961;SDS011;70424;55.154;14.722;2023-10-31T13:57:00;11.27;;;6.15;;
80961;SDS011;70424;55.154;14.722;2023-10-31T13:59:26;12.70;;;7.55;;
80961;SDS011;70424;55.154;14.722;2023-10-31T14:01:52;9.85;;;6.82;;
80961;SDS011;70424;55.154;14.722;2023-10-31T14:04:18;13.10;;;7.85;;
80961;SDS011;70424;55.154;14.722;2023-10-31T14:06:44;11.73;;;7.95;;
80961;SDS011;70424;55.154;14.722;2023-10-31T14:09:10;12.20;;;7.63;;
80961;SDS011;70424;55.154;14.722;2023-10-31T14:11:37;13.68;;;8.20;;
80961;SDS011;70424;55.154;14.722;2023-10-31T14:14:04;13.10;;;8.13;;
80961;SDS011;70424;55.154;14.722;2023-10-31T14:16:38;10.90;;;8.10;;
80961;SDS011;70424;55.154;14.722;2023-10-31T14:19:06;11.02;;;7.55;;
80961;SDS011;70424;55.154;14.722;2023-10-31T14:21:33;9.98;;;7.25;;
80961;SDS011;70424;55.154;14.722;2023-10-31T14:23:58;9.65;;;6.97;;
80961;SDS011;70424;55.154;14.722;2023-10-31T14:26:24;10.48;;;6.78;;